パース の空港の天気 - METARとTAF

パース空港 ( YPPH / PER ) - オーストラリア 西オーストラリア州パース
飛行場実況気象(Metar)
観測時間10/26 03:00 AWST (10/25 19:00 UTC)
風向・風速南南東 3m/s
視程10km以上
天気現象
なし
気温17℃
湿度68%
気圧1007hPa
METARYPPH 251900Z 16006KT CAVOK 17/11 Q1007
過去の天気等 Google飛行場航空写真 Wunderground天気予報

過去48時間のMETAR

飛行場予報(TAF)
発表時間: 10/26 01:24 AWST (10/25 17:24 UTC)
予報対象時間: 26日2時 AWST ~ 27日8時 AWST
風向・風速北西 4m/s
視程10km以上
なし
26日9時 AWST から
風向・風速西南西 7m/s
視程10km以上
なし
26日17時 AWST から
風向・風速南南西 6m/s
視程10km以上
全天の4割程度の雲 雲底高度 760m
26日20時 AWST から
風向・風速南 4m/s
視程10km以上
全天の4割程度の雲 雲底高度 610m
27日2時 AWST から
風向・風速東 4m/s
視程10km以上
全天の4割程度の雲 雲底高度 760m
TAF YPPH 251724Z 2518/2700 31007KT CAVOK
FM260100 24014KT CAVOK
FM260900 21012KT 9999 SCT025
FM261200 19008KT 9999 SCT020
FM261800 08008KT 9999 SCT025